Main page
METAR-TAF:

METAR-TAF

Airports :

La Chinita International Airport

Maracaibo, Venezuela

latitude: 10-34N, longitude: 071-44W, elevation: 66 m

Current weather observation

The report was made 55 minutes ago, at 11:00 UTC
Temperature 26°C
Humidity 84%
Pressure 1010 hPa
Visibility 10 km or more
Few clouds at a height of 1000 ft
Broken clouds at a height of 1300 ft
light drizzle,

METAR: SVMC 231100Z /////KT 9999 -DZ FEW010 CB BKN013 26/23 Q1010

Time: 07:55 (11:55 UTC)

Forecast

The report was made 1 hour and 55 minutes ago, at 10:00 UTC
Forecast valid from 23 at 12 UTC to 24 at 12 UTC
Wind 4 kt from the North/Northwest
Visibility: 9000 m
Scattered clouds at a height of 1600 ft
Scattered clouds at a height of 8000 ft
drizzle
Temporary
from 23 at 06 UTC to 23 at 19 UTC
Wind 2 kt from the West
Visibility 10 km or more
Scattered clouds at a height of 1300 ft
Scattered clouds at a height of 2000 ft

TAF: SVMC 231000Z 2312/2412 34004KT 9000 DZ SCT016 SCT080 TX36/2118Z TN25/2208Z TEMPO 2306/2319 27002KT 9999 SCT013 SCT020

Weather observations and forecasts of more than 4000 airports (METAR and TAF reports).

The available stations are represented by yellow and red dots on the map.

Hover mouse over dot to see the name of the station.

Then click to see weather observations and forecasts.

To change the map : click on the green buttons with a black cross to zoom in, on the green button with a dash to zoom out, or on the green arrows for adjacent maps.


METAR-TAF: